Aviation Digital Data Service (ADDS)

Output produced by METARs form (0521 UTC 16 February 2019)
found at http://www.aviationweather.gov/metar/data/
 
Forecast for: CYHD (DRYDEN AIRPORT , ON, CA)
Text: TAF CYHD 160138Z 1602/1614 28005KT P6SM SKC RMK FCST BASED ON AUTO OBS. NXT FCST BY 160800Z
Forecast period: 0200 to 1400 UTC 16 February 2019
Forecast type: FROM: standard forecast or significant change
Winds: from the W (280 degrees) at 6 MPH (5 knots; 2.6 m/s)
Visibility: 6 or more miles 10+ km)
Clouds: clear skies
Weather: no significant weather forecast for this period